createdAt,value
2023-05-10T00:00:12.181Z,38.41
2023-05-10T00:01:12.207Z,38.40
2023-05-10T00:02:12.387Z,38.38
2023-05-10T00:03:12.388Z,38.39
2023-05-10T00:04:12.526Z,38.40
2023-05-10T00:05:12.412Z,38.40
2023-05-10T00:06:12.459Z,38.39
2023-05-10T00:07:12.463Z,38.40
2023-05-10T00:08:12.499Z,38.41
2023-05-10T00:09:12.571Z,38.38
2023-05-10T00:10:12.606Z,38.40
2023-05-10T00:11:12.628Z,38.42
2023-05-10T00:12:12.682Z,38.42
2023-05-10T00:13:12.764Z,38.43
2023-05-10T00:14:12.788Z,38.41
2023-05-10T00:15:12.793Z,38.43
2023-05-10T00:16:12.947Z,38.42
2023-05-10T00:17:12.945Z,38.40
2023-05-10T00:18:12.939Z,38.46
2023-05-10T00:19:12.983Z,38.44
2023-05-10T00:20:13.071Z,38.45
2023-05-10T00:21:13.088Z,38.47
2023-05-10T00:22:13.135Z,38.43
2023-05-10T00:23:13.181Z,38.45
2023-05-10T00:24:13.227Z,38.43
2023-05-10T00:25:13.245Z,38.43
2023-05-10T00:26:13.334Z,38.42
2023-05-10T00:27:13.351Z,38.45
2023-05-10T00:28:13.404Z,38.43
2023-05-10T00:29:13.452Z,38.41
2023-05-10T00:30:13.580Z,38.43
2023-05-10T00:31:13.553Z,38.42
2023-05-10T00:32:13.684Z,38.42
2023-05-10T00:33:14.603Z,38.44
2023-05-10T00:34:13.613Z,38.46
2023-05-10T00:35:13.583Z,38.46
2023-05-10T00:36:13.600Z,38.45
2023-05-10T00:37:13.573Z,38.44
2023-05-10T00:38:13.574Z,38.45
2023-05-10T00:39:13.550Z,38.44
2023-05-10T00:40:13.584Z,38.45
2023-05-10T00:41:13.543Z,38.47
2023-05-10T00:42:13.584Z,38.45
2023-05-10T00:43:13.667Z,38.48
2023-05-10T00:44:13.701Z,38.46
2023-05-10T00:45:13.718Z,38.46
2023-05-10T00:46:13.829Z,38.47
2023-05-10T00:47:13.833Z,38.47
2023-05-10T00:48:13.883Z,38.48
2023-05-10T00:49:13.933Z,38.49
2023-05-10T00:50:14.097Z,38.48
2023-05-10T00:51:14.009Z,38.48
2023-05-10T00:52:14.053Z,38.49
2023-05-10T00:53:14.133Z,38.52
2023-05-10T00:54:14.143Z,38.49
2023-05-10T00:55:14.210Z,38.51
2023-05-10T00:56:14.286Z,38.49
2023-05-10T00:57:14.297Z,38.50
2023-05-10T00:58:14.378Z,38.49
2023-05-10T00:59:14.444Z,38.52
2023-05-10T01:00:14.618Z,38.49
2023-05-10T01:01:14.556Z,38.51
2023-05-10T01:02:14.574Z,38.49
2023-05-10T01:03:14.651Z,38.52
2023-05-10T01:04:14.700Z,38.50
2023-05-10T01:05:14.743Z,38.50
2023-05-10T01:06:14.787Z,38.49
2023-05-10T01:07:14.801Z,38.51
2023-05-10T01:08:14.859Z,38.51
2023-05-10T01:09:15.197Z,38.51
2023-05-10T01:10:15.210Z,38.53
2023-05-10T01:11:15.029Z,38.53
2023-05-10T01:12:15.076Z,38.53
2023-05-10T01:13:15.100Z,38.50
2023-05-10T01:14:15.131Z,38.51
2023-05-10T01:15:15.192Z,38.51
2023-05-10T01:16:16.246Z,38.52
2023-05-10T01:17:15.264Z,38.51
2023-05-10T01:18:15.308Z,38.50
2023-05-10T01:29:53.397Z,39.04
2023-05-10T01:30:49.780Z,39.01
2023-05-10T01:31:48.740Z,38.99
2023-05-10T01:32:48.705Z,38.98
2023-05-10T01:33:48.700Z,38.98
2023-05-10T01:34:48.707Z,38.94
2023-05-10T01:35:48.654Z,38.93
2023-05-10T01:36:48.656Z,38.94
2023-05-10T01:37:48.637Z,38.91
2023-05-10T01:38:48.657Z,38.87
2023-05-10T01:39:48.688Z,38.84
2023-05-10T01:40:48.699Z,38.83
2023-05-10T01:41:48.744Z,38.82
2023-05-10T01:42:49.397Z,38.79
2023-05-10T01:43:48.851Z,38.79
2023-05-10T01:44:48.916Z,38.76
2023-05-10T01:45:48.957Z,38.75
2023-05-10T01:46:49.004Z,38.75
2023-05-10T01:47:49.132Z,38.74
2023-05-10T01:48:49.154Z,38.72
2023-05-10T01:49:49.148Z,38.76
2023-05-10T01:50:49.165Z,38.72
2023-05-10T01:51:49.230Z,38.74
2023-05-10T01:52:49.334Z,38.71
2023-05-10T01:53:49.340Z,38.70
2023-05-10T01:54:49.466Z,38.71
2023-05-10T01:55:49.509Z,38.70
2023-05-10T01:56:49.488Z,38.68
2023-05-10T01:57:49.591Z,38.66
2023-05-10T01:58:49.629Z,38.68
2023-05-10T01:59:49.654Z,38.69
2023-05-10T02:00:49.694Z,38.67
2023-05-10T02:01:49.735Z,38.68
2023-05-10T02:02:49.855Z,38.69
2023-05-10T02:03:49.954Z,38.68
2023-05-10T02:04:49.922Z,38.69
2023-05-10T02:05:49.926Z,38.65
2023-05-10T02:06:49.983Z,38.66
2023-05-10T02:07:50.018Z,38.68
2023-05-10T02:08:50.080Z,38.67
2023-05-10T02:09:50.161Z,38.70
2023-05-10T02:10:50.176Z,38.66
2023-05-10T02:11:50.226Z,38.68
2023-05-10T02:12:50.268Z,38.69
2023-05-10T02:13:50.336Z,38.68
2023-05-10T02:14:50.375Z,38.65
2023-05-10T02:15:50.447Z,38.69
2023-05-10T02:16:50.535Z,38.67
2023-05-10T02:17:50.558Z,38.66
2023-05-10T02:18:50.558Z,38.65
2023-05-10T02:19:50.603Z,38.67
2023-05-10T02:20:50.630Z,38.66
2023-05-10T02:21:50.709Z,38.69
2023-05-10T02:22:50.751Z,38.70
2023-05-10T02:23:50.815Z,38.67
2023-05-10T02:24:50.839Z,38.68
2023-05-10T02:25:50.949Z,38.67
2023-05-10T02:26:50.948Z,38.69
2023-05-10T02:27:51.037Z,38.70
2023-05-10T02:28:51.067Z,38.71
2023-05-10T02:29:51.117Z,38.68
2023-05-10T02:30:51.200Z,38.68
2023-05-10T02:31:51.239Z,38.69
2023-05-10T02:32:51.273Z,38.67
2023-05-10T02:33:51.309Z,38.66
2023-05-10T02:34:51.383Z,38.67
2023-05-10T02:35:51.400Z,38.71
2023-05-10T02:36:51.459Z,38.66
2023-05-10T02:37:51.499Z,38.68
2023-05-10T02:38:51.536Z,38.69
2023-05-10T02:39:51.588Z,38.68
2023-05-10T02:40:51.638Z,38.66
2023-05-10T02:41:51.685Z,38.68
2023-05-10T02:42:51.751Z,38.67
2023-05-10T02:43:51.754Z,38.71
2023-05-10T02:44:51.815Z,38.67
2023-05-10T02:45:51.867Z,38.69
2023-05-10T02:46:51.865Z,38.67
2023-05-10T02:47:51.973Z,38.64
2023-05-10T02:48:52.483Z,38.67
2023-05-10T02:49:52.031Z,38.71
2023-05-10T02:50:52.141Z,38.68
2023-05-10T02:51:52.111Z,38.68
2023-05-10T02:52:52.178Z,38.70
2023-05-10T02:53:52.200Z,38.68
2023-05-10T02:54:52.252Z,38.71
2023-05-10T02:55:52.288Z,38.68
2023-05-10T02:56:52.339Z,38.68
2023-05-10T02:57:52.381Z,38.68
2023-05-10T02:58:52.454Z,38.72
2023-05-10T02:59:52.475Z,38.69
2023-05-10T03:00:52.524Z,38.69
2023-05-10T03:01:52.693Z,38.68
2023-05-10T03:02:52.697Z,38.70
2023-05-10T03:03:52.653Z,38.68
2023-05-10T03:04:52.775Z,38.71
2023-05-10T03:05:52.732Z,38.71
2023-05-10T03:06:52.803Z,38.71
2023-05-10T03:07:52.774Z,38.68
2023-05-10T03:08:52.848Z,38.70
2023-05-10T03:09:52.860Z,38.68
2023-05-10T03:10:52.900Z,38.72
2023-05-10T03:11:52.937Z,38.71
2023-05-10T03:12:53.028Z,38.72
2023-05-10T03:13:53.585Z,38.72
2023-05-10T03:14:53.058Z,38.73
2023-05-10T03:15:53.108Z,38.73
2023-05-10T03:16:53.153Z,38.72
2023-05-10T03:17:53.218Z,38.69
2023-05-10T03:18:53.329Z,38.71
2023-05-10T03:19:53.297Z,38.70
2023-05-10T03:20:53.377Z,38.70
2023-05-10T03:21:53.346Z,38.71
2023-05-10T03:22:53.385Z,38.72
2023-05-10T03:23:53.385Z,38.71
2023-05-10T03:24:53.439Z,38.71
2023-05-10T03:25:53.496Z,38.71
2023-05-10T03:26:53.491Z,38.69
2023-05-10T03:27:53.559Z,38.70
2023-05-10T03:28:53.573Z,38.70
2023-05-10T03:29:53.584Z,38.72
2023-05-10T03:30:53.612Z,38.69
2023-05-10T03:31:53.805Z,38.70
2023-05-10T03:32:53.782Z,38.70
2023-05-10T03:33:53.753Z,38.71
2023-05-10T03:34:53.806Z,38.70
2023-05-10T03:35:53.807Z,38.69
2023-05-10T03:36:53.861Z,38.71
2023-05-10T03:37:53.900Z,38.70
2023-05-10T03:38:53.919Z,38.72
2023-05-10T03:39:53.925Z,38.71
2023-05-10T03:40:53.954Z,38.71
2023-05-10T03:41:53.982Z,38.71
2023-05-10T03:42:54.030Z,38.70
2023-05-10T03:43:54.080Z,38.70
2023-05-10T03:44:54.074Z,38.70
2023-05-10T03:45:54.100Z,38.71
2023-05-10T03:46:54.156Z,38.73
2023-05-10T03:47:54.198Z,38.70
2023-05-10T03:48:54.194Z,38.70
2023-05-10T03:49:54.222Z,38.72
2023-05-10T03:50:54.291Z,38.71
2023-05-10T03:51:54.313Z,38.70
2023-05-10T03:52:54.910Z,38.69
2023-05-10T03:53:54.412Z,38.71
2023-05-10T03:54:54.381Z,38.71
2023-05-10T03:55:54.433Z,38.69
2023-05-10T03:56:55.444Z,38.69
2023-05-10T03:57:54.509Z,38.70
2023-05-10T03:58:54.564Z,38.70
2023-05-10T03:59:54.552Z,38.71
2023-05-10T04:00:54.602Z,38.71
2023-05-10T04:01:54.655Z,38.72
2023-05-10T04:02:54.642Z,38.71
2023-05-10T04:03:54.739Z,38.70
2023-05-10T04:04:54.680Z,38.72
2023-05-10T04:05:54.737Z,38.71
2023-05-10T04:06:54.750Z,38.73
2023-05-10T04:07:54.766Z,38.74
2023-05-10T04:08:54.848Z,38.73
2023-05-10T04:09:54.837Z,38.73
2023-05-10T04:10:54.878Z,38.73
2023-05-10T04:11:54.937Z,38.75
2023-05-10T04:12:54.962Z,38.74
2023-05-10T04:13:55.024Z,38.73
2023-05-10T04:14:54.998Z,38.75
2023-05-10T04:15:55.068Z,38.76
2023-05-10T04:16:55.082Z,38.73
2023-05-10T04:17:55.133Z,38.72
2023-05-10T04:18:55.158Z,38.74
2023-05-10T04:19:55.167Z,38.74
2023-05-10T04:20:55.198Z,38.74
2023-05-10T04:21:55.229Z,38.74
2023-05-10T04:22:55.221Z,38.72
2023-05-10T04:23:55.299Z,38.75
2023-05-10T04:24:55.306Z,38.74
2023-05-10T04:25:55.328Z,38.73
2023-05-10T04:26:56.542Z,38.75
2023-05-10T04:27:55.392Z,38.73
2023-05-10T04:28:55.445Z,38.76
2023-05-10T04:29:55.453Z,38.75
2023-05-10T04:30:55.529Z,38.74
2023-05-10T04:31:55.512Z,38.74
2023-05-10T04:32:55.588Z,38.75
2023-05-10T04:33:55.617Z,38.74
2023-05-10T04:34:55.619Z,38.77
2023-05-10T04:35:55.671Z,38.74
2023-05-10T04:36:55.673Z,38.73
2023-05-10T04:37:55.713Z,38.73
2023-05-10T04:38:55.733Z,38.77
2023-05-10T04:39:55.758Z,38.76
2023-05-10T04:40:55.789Z,38.72
2023-05-10T04:41:55.794Z,38.73
2023-05-10T04:42:55.860Z,38.76
2023-05-10T04:43:55.878Z,38.74
2023-05-10T04:44:55.891Z,38.74
2023-05-10T04:45:55.944Z,38.74
2023-05-10T04:46:56.002Z,38.74
2023-05-10T04:47:56.059Z,38.76
2023-05-10T04:48:56.088Z,38.75
2023-05-10T04:49:56.063Z,38.75
2023-05-10T04:50:56.108Z,38.76
2023-05-10T04:51:56.117Z,38.77
2023-05-10T04:52:56.129Z,38.77
2023-05-10T04:54:05.115Z,38.75
2023-05-10T04:54:57.163Z,38.75
2023-05-10T04:55:56.245Z,38.76
2023-05-10T04:56:56.150Z,38.76
2023-05-10T04:57:56.131Z,38.76
2023-05-10T04:58:56.150Z,38.77
2023-05-10T04:59:56.146Z,38.75
2023-05-10T05:00:56.100Z,38.76
2023-05-10T05:01:56.162Z,38.77
2023-05-10T05:02:56.183Z,38.76
2023-05-10T05:03:56.242Z,38.73
2023-05-10T05:04:56.093Z,38.74
2023-05-10T05:05:56.083Z,38.76
2023-05-10T05:06:56.077Z,38.74
2023-05-10T05:07:56.098Z,38.74
2023-05-10T05:08:56.059Z,38.74
2023-05-10T05:09:56.140Z,38.76
2023-05-10T05:10:56.119Z,38.75
2023-05-10T05:11:56.140Z,38.73
2023-05-10T05:12:56.194Z,38.76
2023-05-10T05:13:56.196Z,38.75
2023-05-10T05:14:56.230Z,38.76
2023-05-10T05:15:56.369Z,38.77
2023-05-10T05:16:56.244Z,38.78
2023-05-10T05:17:56.361Z,38.79
2023-05-10T05:18:56.306Z,38.78
2023-05-10T05:19:56.318Z,38.78
2023-05-10T05:20:56.315Z,38.77
2023-05-10T05:21:56.357Z,38.77
2023-05-10T05:22:56.384Z,38.77
2023-05-10T05:23:56.418Z,38.78
2023-05-10T05:24:56.447Z,38.76
2023-05-10T05:25:56.451Z,38.75
2023-05-10T05:26:56.500Z,38.76
2023-05-10T05:27:56.521Z,38.75
2023-05-10T05:28:56.538Z,38.78
2023-05-10T05:29:56.716Z,38.77
2023-05-10T05:30:56.627Z,38.76
2023-05-10T05:31:56.733Z,38.73
2023-05-10T05:32:56.721Z,38.73
2023-05-10T05:33:56.780Z,38.75
2023-05-10T05:34:56.772Z,38.88
2023-05-10T05:35:56.824Z,39.46
2023-05-10T05:36:56.786Z,40.56
2023-05-10T05:37:56.835Z,40.62
2023-05-10T05:38:56.827Z,41.31
2023-05-10T05:39:56.953Z,41.45
2023-05-10T05:40:56.974Z,41.49
2023-05-10T05:41:56.954Z,42.05
2023-05-10T05:42:57.054Z,41.93
2023-05-10T05:43:57.051Z,42.27
2023-05-10T05:44:57.143Z,42.24
2023-05-10T05:45:57.169Z,42.24
2023-05-10T05:46:57.200Z,41.83
2023-05-10T05:47:57.274Z,41.98
2023-05-10T05:48:57.316Z,41.88
2023-05-10T05:49:57.372Z,41.96
2023-05-10T05:50:57.525Z,42.10
2023-05-10T05:51:57.470Z,42.22
2023-05-10T05:52:57.523Z,42.18
2023-05-10T05:53:57.570Z,42.32
2023-05-10T05:54:57.637Z,42.32
2023-05-10T05:55:57.664Z,42.29
2023-05-10T05:56:59.770Z,42.39
2023-05-10T05:57:57.712Z,42.41
2023-05-10T05:58:57.765Z,42.36
2023-05-10T05:59:57.722Z,42.50
2023-05-10T06:00:57.750Z,42.54
2023-05-10T06:01:57.793Z,42.57
2023-05-10T06:02:57.790Z,42.56
2023-05-10T06:03:57.874Z,42.67
2023-05-10T06:04:58.002Z,42.76
2023-05-10T06:05:57.671Z,42.73
2023-05-10T06:06:57.660Z,42.63
2023-05-10T06:07:57.698Z,42.75
2023-05-10T06:08:57.690Z,42.81
2023-05-10T06:09:57.653Z,42.86
2023-05-10T06:10:57.755Z,42.95
2023-05-10T06:11:57.644Z,42.93
2023-05-10T06:12:57.716Z,42.90
2023-05-10T06:13:57.635Z,42.95
2023-05-10T06:14:57.626Z,42.95
2023-05-10T06:15:57.674Z,43.03
2023-05-10T06:16:57.743Z,42.97
2023-05-10T06:18:57.768Z,43.02
2023-05-10T06:19:57.591Z,42.98
2023-05-10T06:20:57.629Z,43.02
2023-05-10T06:21:57.580Z,43.05
2023-05-10T06:22:57.564Z,43.05
2023-05-10T06:23:57.561Z,43.15
2023-05-10T06:24:57.568Z,43.10
2023-05-10T06:25:57.551Z,43.08
2023-05-10T06:26:57.545Z,43.05
2023-05-10T06:27:57.530Z,43.09
2023-05-10T06:28:57.519Z,43.13
2023-05-10T06:30:05.762Z,43.14
2023-05-10T06:30:58.564Z,43.14
2023-05-10T06:31:57.607Z,43.17
2023-05-10T06:32:57.683Z,43.14
2023-05-10T06:33:57.503Z,43.17
2023-05-10T06:34:57.523Z,43.14
2023-05-10T06:35:57.538Z,43.20
2023-05-10T06:36:57.515Z,43.38
2023-05-10T06:37:57.526Z,43.71
2023-05-10T06:38:57.456Z,43.91
2023-05-10T06:39:57.553Z,43.98
2023-05-10T06:40:57.592Z,43.78
2023-05-10T06:41:57.491Z,43.57
2023-05-10T06:42:57.487Z,43.62
2023-05-10T06:43:57.542Z,43.52
2023-05-10T06:44:58.071Z,43.54
2023-05-10T06:45:57.700Z,43.59
2023-05-10T06:46:57.660Z,43.67
2023-05-10T06:47:57.769Z,43.71
2023-05-10T06:48:57.746Z,43.79
2023-05-10T06:49:57.826Z,44.04
2023-05-10T06:50:57.840Z,43.86
2023-05-10T06:51:57.895Z,43.95
2023-05-10T06:52:58.031Z,44.01
2023-05-10T06:53:58.014Z,44.18
2023-05-10T06:54:58.307Z,44.26
2023-05-10T06:55:58.131Z,44.34
2023-05-10T06:56:58.119Z,44.36
2023-05-10T06:57:58.145Z,44.41
2023-05-10T06:58:58.243Z,44.58
2023-05-10T06:59:58.248Z,44.42
2023-05-10T07:00:58.381Z,44.49
2023-05-10T07:01:58.357Z,44.45
2023-05-10T07:02:59.338Z,44.60
2023-05-10T07:03:58.299Z,44.53
2023-05-10T07:05:00.112Z,44.44
2023-05-10T07:05:58.314Z,44.41
2023-05-10T07:06:58.339Z,44.41
2023-05-10T07:07:58.286Z,44.50
2023-05-10T07:08:58.277Z,44.45
2023-05-10T07:09:58.291Z,44.43
2023-05-10T07:10:58.267Z,44.30
2023-05-10T07:11:58.282Z,44.09
2023-05-10T07:12:58.383Z,43.89
2023-05-10T07:13:58.281Z,43.24
2023-05-10T07:14:58.240Z,43.50
2023-05-10T07:15:58.242Z,43.54
2023-05-10T07:16:59.108Z,43.58
2023-05-10T07:17:58.425Z,43.79
2023-05-10T07:18:58.203Z,43.80
2023-05-10T07:19:58.242Z,43.82
2023-05-10T07:20:58.218Z,43.80
2023-05-10T07:21:58.188Z,43.83
2023-05-10T07:22:58.213Z,43.81
2023-05-10T07:23:58.200Z,43.94
2023-05-10T07:24:58.382Z,43.97
2023-05-10T07:25:58.153Z,44.08
2023-05-10T07:26:58.145Z,44.05
2023-05-10T07:27:58.147Z,44.09
2023-05-10T07:28:58.143Z,44.20
2023-05-10T07:29:58.152Z,44.17
2023-05-10T07:30:58.160Z,44.44
2023-05-10T07:31:59.051Z,44.36
2023-05-10T07:32:58.137Z,44.34
2023-05-10T07:33:58.124Z,44.01
2023-05-10T07:34:58.562Z,43.86
2023-05-10T07:35:58.190Z,43.54
2023-05-10T07:36:59.095Z,42.96
2023-05-10T07:37:58.182Z,42.89
2023-05-10T07:38:58.121Z,43.03
2023-05-10T07:39:58.091Z,43.11
2023-05-10T07:40:58.060Z,43.26
2023-05-10T07:41:58.081Z,43.47
2023-05-10T07:42:58.209Z,43.69
2023-05-10T07:43:58.551Z,43.79
2023-05-10T07:44:58.073Z,43.94
2023-05-10T07:45:58.037Z,43.99
2023-05-10T07:46:58.015Z,44.15
2023-05-10T07:47:58.074Z,44.26
2023-05-10T07:48:58.015Z,44.30
2023-05-10T07:49:58.126Z,44.27
2023-05-10T07:50:58.033Z,44.41
2023-05-10T07:51:58.652Z,44.66
2023-05-10T07:52:58.647Z,44.66
2023-05-10T07:53:57.989Z,44.81
2023-05-10T07:54:58.108Z,45.03
2023-05-10T07:55:58.059Z,45.02
2023-05-10T07:56:58.050Z,45.05
2023-05-10T07:57:57.962Z,45.24
2023-05-10T07:58:57.930Z,45.31
2023-05-10T07:59:58.202Z,45.48
2023-05-10T08:00:57.979Z,45.82
2023-05-10T08:01:57.943Z,45.64
2023-05-10T08:02:58.016Z,45.70
2023-05-10T08:03:58.015Z,45.80
2023-05-10T08:04:57.920Z,45.72
2023-05-10T08:05:57.907Z,45.76
2023-05-10T08:06:57.977Z,45.68
2023-05-10T08:07:57.888Z,45.68
2023-05-10T08:08:57.902Z,45.33
2023-05-10T08:09:57.982Z,45.30
2023-05-10T08:10:57.905Z,45.33
2023-05-10T08:11:57.867Z,45.37
2023-05-10T08:12:57.880Z,45.37
2023-05-10T08:13:57.863Z,45.47
2023-05-10T08:14:57.918Z,45.56
2023-05-10T08:15:57.996Z,45.66
2023-05-10T08:16:57.918Z,45.78
2023-05-10T08:17:57.913Z,45.83
2023-05-10T08:18:57.903Z,45.80
2023-05-10T08:19:58.094Z,45.94
2023-05-10T08:20:57.928Z,45.92
2023-05-10T08:21:57.956Z,45.94
2023-05-10T08:22:58.069Z,46.14
2023-05-10T08:23:58.146Z,46.13
2023-05-10T08:24:58.027Z,46.16
2023-05-10T08:25:58.100Z,46.28
2023-05-10T08:26:58.151Z,46.35
2023-05-10T08:27:58.216Z,46.31
2023-05-10T08:28:58.232Z,46.21
2023-05-10T08:29:58.281Z,46.10
2023-05-10T08:30:58.367Z,46.16
2023-05-10T08:31:58.383Z,46.19
2023-05-10T08:32:58.503Z,46.19
2023-05-10T08:33:58.504Z,46.04
2023-05-10T08:34:58.550Z,45.82
2023-05-10T08:35:58.600Z,45.85
2023-05-10T08:36:58.676Z,45.67
2023-05-10T08:37:58.706Z,45.63
2023-05-10T08:38:58.761Z,45.66
2023-05-10T08:39:58.804Z,45.70
2023-05-10T08:40:58.816Z,45.57
2023-05-10T08:41:58.812Z,45.57
2023-05-10T08:42:58.988Z,45.58
2023-05-10T08:43:58.896Z,45.66
2023-05-10T08:44:59.118Z,45.74
2023-05-10T08:45:59.039Z,45.85
2023-05-10T08:46:59.118Z,45.89
2023-05-10T08:47:59.169Z,45.95
2023-05-10T08:48:59.183Z,46.19
2023-05-10T08:49:59.682Z,46.69
2023-05-10T08:50:59.229Z,46.78
2023-05-10T08:51:59.273Z,46.68
2023-05-10T08:52:59.346Z,46.70
2023-05-10T08:53:59.433Z,46.75
2023-05-10T08:54:59.478Z,46.75
2023-05-10T08:55:59.476Z,46.70
2023-05-10T08:56:59.527Z,46.72
2023-05-10T08:57:59.600Z,46.80
2023-05-10T08:58:59.618Z,46.87
2023-05-10T08:59:59.865Z,47.28
2023-05-10T09:00:59.742Z,47.43
2023-05-10T09:01:59.775Z,47.50
2023-05-10T09:02:59.850Z,47.43
2023-05-10T09:03:59.980Z,47.51
2023-05-10T09:05:00.255Z,47.67
2023-05-10T09:05:59.956Z,47.65
2023-05-10T09:07:00.161Z,47.70
2023-05-10T09:08:00.183Z,47.74
2023-05-10T09:09:00.198Z,48.02
2023-05-10T09:10:00.282Z,48.14
2023-05-10T09:11:00.247Z,48.13
2023-05-10T09:12:00.253Z,48.23
2023-05-10T09:13:00.290Z,48.37
2023-05-10T09:14:00.421Z,48.42
2023-05-10T09:15:00.360Z,48.39
2023-05-10T09:16:07.097Z,48.58
2023-05-10T09:17:01.438Z,48.55
2023-05-10T09:18:00.467Z,48.73
2023-05-10T09:19:00.405Z,48.71
2023-05-10T09:20:00.401Z,48.77
2023-05-10T09:21:00.434Z,48.90
2023-05-10T09:22:00.397Z,49.09
2023-05-10T09:23:00.369Z,49.04
2023-05-10T09:24:00.374Z,49.07
2023-05-10T09:25:00.348Z,49.30
2023-05-10T09:26:00.350Z,49.46
2023-05-10T09:27:00.463Z,49.48
2023-05-10T09:28:00.410Z,49.62
2023-05-10T09:29:00.460Z,49.54
2023-05-10T09:30:00.625Z,49.63
2023-05-10T09:31:00.544Z,49.81
2023-05-10T09:32:00.581Z,49.87
2023-05-10T09:33:00.751Z,49.77
2023-05-10T09:34:00.667Z,46.80
2023-05-10T09:35:00.694Z,45.89
2023-05-10T09:36:00.755Z,45.82
2023-05-10T09:37:00.711Z,46.03
2023-05-10T09:38:00.736Z,46.39
2023-05-10T09:39:00.790Z,46.77
2023-05-10T09:40:00.778Z,46.98
2023-05-10T09:41:00.861Z,46.44
2023-05-10T09:42:00.809Z,46.31
2023-05-10T09:43:00.993Z,46.29
2023-05-10T09:44:00.822Z,46.04
2023-05-10T09:45:01.666Z,46.23
2023-05-10T09:46:00.968Z,46.62
2023-05-10T09:47:00.932Z,46.74
2023-05-10T09:48:00.910Z,46.82
2023-05-10T09:49:00.910Z,46.91
2023-05-10T09:50:00.963Z,46.74
2023-05-10T09:51:01.258Z,46.49
2023-05-10T09:52:01.052Z,46.20
2023-05-10T09:53:01.127Z,46.31
2023-05-10T09:54:01.095Z,45.91
2023-05-10T09:55:01.088Z,45.85
2023-05-10T09:56:01.170Z,45.73
2023-05-10T09:57:01.144Z,45.50
2023-05-10T09:58:01.206Z,45.34
2023-05-10T09:59:01.197Z,44.74
2023-05-10T10:00:01.434Z,44.34
2023-05-10T10:01:01.333Z,44.32
2023-05-10T10:02:01.759Z,44.26
2023-05-10T10:03:01.411Z,44.27
2023-05-10T10:04:01.383Z,43.97
2023-05-10T10:05:01.414Z,43.80
2023-05-10T10:06:01.410Z,43.90
2023-05-10T10:07:02.145Z,43.92
2023-05-10T10:08:01.464Z,44.20
2023-05-10T10:09:01.562Z,44.46
2023-05-10T10:10:01.533Z,43.54
2023-05-10T10:11:01.646Z,43.63
2023-05-10T10:12:01.619Z,43.89
2023-05-10T10:13:01.563Z,44.31
2023-05-10T10:14:01.597Z,44.44
2023-05-10T10:15:01.567Z,44.30
2023-05-10T10:16:01.713Z,44.11
2023-05-10T10:17:08.026Z,44.04
2023-05-10T10:18:03.175Z,44.09
2023-05-10T10:19:01.708Z,44.15
2023-05-10T10:20:01.600Z,44.03
2023-05-10T10:21:01.610Z,43.59
2023-05-10T10:22:01.575Z,43.65
2023-05-10T10:23:01.623Z,43.73
2023-05-10T10:24:01.628Z,43.63
2023-05-10T10:25:01.568Z,43.77
2023-05-10T10:26:01.589Z,43.88
2023-05-10T10:27:01.581Z,44.14
2023-05-10T10:28:01.569Z,44.36
2023-05-10T10:29:01.535Z,44.18
2023-05-10T10:30:01.563Z,43.97
2023-05-10T10:31:01.708Z,44.09
2023-05-10T10:32:02.159Z,43.76
2023-05-10T10:33:04.018Z,43.62
2023-05-10T10:34:02.545Z,43.63
2023-05-10T10:35:01.548Z,42.98
2023-05-10T10:36:01.598Z,43.08
2023-05-10T10:37:01.516Z,42.89
2023-05-10T10:38:01.508Z,42.77
2023-05-10T10:39:01.489Z,42.85
2023-05-10T10:40:01.512Z,43.38
2023-05-10T10:41:01.517Z,43.55
2023-05-10T10:42:01.480Z,43.24
2023-05-10T10:43:01.446Z,43.19
2023-05-10T10:44:01.495Z,42.98
2023-05-10T10:45:01.447Z,43.25
2023-05-10T10:46:01.491Z,42.85
2023-05-10T10:47:01.496Z,42.97
2023-05-10T10:48:01.503Z,43.45
2023-05-10T10:49:01.466Z,43.48
2023-05-10T10:50:01.434Z,43.43
2023-05-10T10:51:01.678Z,43.08
2023-05-10T10:52:01.516Z,42.89
2023-05-10T10:53:01.493Z,42.81
2023-05-10T10:54:02.156Z,42.74
2023-05-10T10:55:01.502Z,42.66
2023-05-10T10:56:01.565Z,42.19
2023-05-10T10:57:01.577Z,42.03
2023-05-10T10:58:01.763Z,42.23
2023-05-10T10:59:01.627Z,41.87
2023-05-10T11:00:01.662Z,42.22
2023-05-10T11:01:01.776Z,42.20
2023-05-10T11:02:01.799Z,42.34
2023-05-10T11:03:01.912Z,42.82
2023-05-10T11:04:01.974Z,42.71
2023-05-10T11:05:01.856Z,42.91
2023-05-10T11:06:01.874Z,43.20
2023-05-10T11:07:01.908Z,43.25
2023-05-10T11:08:02.006Z,43.21
2023-05-10T11:09:01.978Z,43.17
2023-05-10T11:10:01.955Z,43.34
2023-05-10T11:11:01.971Z,43.43
2023-05-10T11:12:01.973Z,43.64
2023-05-10T11:13:02.021Z,43.78
2023-05-10T11:14:02.069Z,43.88
2023-05-10T11:15:02.124Z,43.89
2023-05-10T11:16:02.154Z,43.96
2023-05-10T11:17:02.148Z,44.07
2023-05-10T11:18:02.212Z,44.33
2023-05-10T11:19:02.236Z,44.35
2023-05-10T11:20:02.179Z,44.23
2023-05-10T11:21:02.252Z,44.28
2023-05-10T11:22:02.215Z,44.23
2023-05-10T11:23:02.306Z,44.19
2023-05-10T11:24:02.248Z,44.10
2023-05-10T11:25:02.266Z,44.08
2023-05-10T11:26:02.334Z,44.11
2023-05-10T11:27:02.299Z,44.08
2023-05-10T11:28:02.270Z,44.06
2023-05-10T11:29:02.288Z,44.10
2023-05-10T11:30:04.323Z,44.10
2023-05-10T11:31:02.603Z,44.14
2023-05-10T11:32:02.540Z,44.10
2023-05-10T11:33:02.603Z,44.12
2023-05-10T11:34:02.630Z,44.12
2023-05-10T11:35:02.564Z,44.15
2023-05-10T11:36:02.644Z,44.14
2023-05-10T11:37:02.655Z,44.14
2023-05-10T11:38:02.645Z,44.11
2023-05-10T11:39:02.676Z,44.12
2023-05-10T11:40:02.659Z,44.17
2023-05-10T11:41:02.708Z,44.19
2023-05-10T11:42:02.686Z,44.20
2023-05-10T11:43:02.710Z,44.18
2023-05-10T11:44:02.696Z,44.22
2023-05-10T11:45:02.775Z,44.18
2023-05-10T11:46:02.825Z,44.19
2023-05-10T11:47:02.790Z,44.20
2023-05-10T11:48:02.866Z,44.23
2023-05-10T11:49:02.957Z,44.23
2023-05-10T11:50:02.852Z,44.19
2023-05-10T11:51:02.916Z,44.20
2023-05-10T11:52:02.885Z,44.23
2023-05-10T11:53:02.916Z,44.21
2023-05-10T11:54:02.936Z,44.24
2023-05-10T11:55:02.962Z,44.21
2023-05-10T11:56:03.014Z,44.19
2023-05-10T11:57:03.012Z,44.26
2023-05-10T11:58:03.018Z,44.28
2023-05-10T11:59:03.021Z,44.28
2023-05-10T12:00:03.081Z,44.27
2023-05-10T12:01:03.125Z,44.27
2023-05-10T12:02:03.090Z,44.29
2023-05-10T12:03:03.214Z,44.28
2023-05-10T12:04:03.291Z,44.24
2023-05-10T12:05:03.279Z,44.28
2023-05-10T12:06:03.224Z,44.27
2023-05-10T12:07:03.222Z,44.24
2023-05-10T12:08:03.249Z,44.23
2023-05-10T12:09:03.276Z,44.25
2023-05-10T12:10:03.267Z,44.26
2023-05-10T12:11:03.321Z,44.25
2023-05-10T12:12:03.330Z,44.23
2023-05-10T12:13:03.340Z,44.24
2023-05-10T12:14:03.374Z,44.24
2023-05-10T12:15:03.384Z,44.27
2023-05-10T12:16:03.499Z,44.26
2023-05-10T12:17:03.486Z,44.28
2023-05-10T12:18:03.520Z,44.25
2023-05-10T12:19:03.601Z,44.26
2023-05-10T12:20:03.530Z,44.25
2023-05-10T12:21:03.546Z,44.25
2023-05-10T12:22:03.594Z,44.26
2023-05-10T12:23:03.578Z,44.24
2023-05-10T12:24:03.624Z,44.25
2023-05-10T12:25:03.663Z,44.23
2023-05-10T12:26:03.812Z,44.27
2023-05-10T12:27:03.709Z,44.23
2023-05-10T12:28:03.781Z,44.23
2023-05-10T12:29:03.789Z,44.22
2023-05-10T12:30:03.849Z,44.23
2023-05-10T12:31:03.890Z,44.21
2023-05-10T12:32:03.978Z,44.19
2023-05-10T12:33:04.007Z,44.15
2023-05-10T12:34:03.997Z,44.14
2023-05-10T12:35:03.988Z,44.15
2023-05-10T12:36:04.035Z,44.13
2023-05-10T12:37:04.070Z,44.17
2023-05-10T12:38:04.164Z,43.77
2023-05-10T12:39:04.264Z,43.66
2023-05-10T12:40:04.163Z,43.36
2023-05-10T12:41:04.289Z,43.24
2023-05-10T12:42:04.255Z,43.00
2023-05-10T12:43:04.306Z,42.96
2023-05-10T12:44:04.325Z,43.06
2023-05-10T12:45:04.371Z,42.46
2023-05-10T12:46:04.440Z,42.42
2023-05-10T12:47:04.426Z,42.32
2023-05-10T12:48:04.426Z,42.39
2023-05-10T12:49:09.108Z,42.79
2023-05-10T12:50:05.473Z,43.65
2023-05-10T12:51:04.466Z,44.60
2023-05-10T12:52:04.519Z,44.32
2023-05-10T12:53:04.440Z,45.01
2023-05-10T12:54:04.465Z,45.43
2023-05-10T12:55:04.473Z,45.25
2023-05-10T12:56:04.492Z,44.93
2023-05-10T12:57:04.438Z,44.94
2023-05-10T12:58:04.445Z,45.03
2023-05-10T12:59:04.453Z,45.31
2023-05-10T13:00:04.482Z,45.13
2023-05-10T13:01:04.429Z,45.28
2023-05-10T13:02:04.749Z,45.29
2023-05-10T13:03:04.430Z,45.26
2023-05-10T13:04:04.444Z,45.29